Time;durP1;ratioP1;P1;durP2;ratioP2;P2;SDS_P1;SDS_P2;PMS_P1;PMS_P2;Temp;Humidity;BMP_temperature;BMP_pressure;BME280_temperature;BME280_humidity;BME280_pressure;Samples;Min_cycle;Max_cycle;Signal;HPM_P1;HPM_P2
2021/07/25 00:01:56;;;;;;;19.75;17.75;;;615.20;1612.80;;;;;;5071023;28;20028;-72
2021/07/25 00:04:22;;;;;;;20.83;18.60;;;615.10;1587.20;;;;;;5072498;28;20504;-74
2021/07/25 00:06:48;;;;;;;21.38;19.13;;;615.20;1587.20;;;;;;5071270;28;20032;-73
2021/07/25 00:09:14;;;;;;;20.08;18.10;;;615.10;1587.20;;;;;;5072846;28;20035;-71
2021/07/25 00:11:40;;;;;;;22.85;17.77;;;615.10;1587.20;;;;;;5072598;28;20024;-71
2021/07/25 00:14:06;;;;;;;19.77;17.80;;;615.10;1587.20;;;;;;5071085;28;20070;-71
2021/07/25 00:16:32;;;;;;;21.00;18.73;;;615.10;1587.20;;;;;;5073235;28;20036;-73
2021/07/25 00:18:58;;;;;;;21.83;18.15;;;615.10;1587.20;;;;;;5073376;28;20487;-71
2021/07/25 00:21:24;;;;;;;20.00;17.88;;;615.10;1587.20;;;;;;5071919;28;20465;-74
2021/07/25 00:23:52;;;;;;;19.38;17.40;;;615.00;1587.20;;;;;;5072796;28;20111;-75
2021/07/25 00:26:24;;;;;;;24.50;17.58;;;615.00;1587.20;;;;;;5073087;28;20029;-71
2021/07/25 00:28:51;;;;;;;21.75;18.60;;;615.00;1612.80;;;;;;5073137;28;20029;-72
2021/07/25 00:31:17;;;;;;;24.67;19.17;;;614.90;1612.80;;;;;;5073223;28;20025;-73
2021/07/25 00:33:43;;;;;;;22.48;18.23;;;614.90;1612.80;;;;;;5072868;28;20099;-72
2021/07/25 00:36:10;;;;;;;19.48;17.60;;;615.10;1612.80;;;;;;5072831;28;20029;-74
2021/07/25 00:38:36;;;;;;;21.38;19.08;;;615.00;1612.80;;;;;;5073203;28;20024;-71
2021/07/25 00:41:19;;;;;;;19.48;17.38;;;614.90;1638.40;;;;;;5072957;28;20016;-71
2021/07/25 00:43:47;;;;;;;22.38;19.08;;;614.90;1612.80;;;;;;5071732;28;20017;-72
2021/07/25 00:46:14;;;;;;;23.05;18.63;;;614.90;1612.80;;;;;;5072817;28;20032;-71
2021/07/25 00:48:41;;;;;;;20.48;18.17;;;614.90;1612.80;;;;;;5071695;28;20020;-71
2021/07/25 00:51:07;;;;;;;20.58;18.27;;;614.90;1612.80;;;;;;5073255;28;20031;-72
2021/07/25 00:53:34;;;;;;;20.77;18.77;;;614.80;1612.80;;;;;;5072805;28;20025;-72
2021/07/25 00:56:03;;;;;;;21.40;19.27;;;614.80;1612.80;;;;;;5072736;28;20055;-71
2021/07/25 00:58:29;;;;;;;23.65;18.35;;;614.80;1612.80;;;;;;5071304;28;20045;-72
2021/07/25 01:00:55;;;;;;;22.17;18.23;;;614.80;1612.80;;;;;;5073041;28;20074;-72
2021/07/25 01:03:22;;;;;;;21.25;19.10;;;614.80;1638.40;;;;;;5071476;28;20029;-71
2021/07/25 01:06:06;;;;;;;20.80;18.83;;;614.80;1638.40;;;;;;5076072;28;20024;-72
2021/07/25 01:08:44;;;;;;;23.52;18.60;;;614.80;1638.40;;;;;;5076453;28;20036;-75
2021/07/25 01:11:12;;;;;;;19.85;17.08;;;614.70;1638.40;;;;;;5076010;28;20031;-72
2021/07/25 01:13:41;;;;;;;20.75;18.13;;;614.70;1638.40;;;;;;5075970;28;20370;-71
2021/07/25 01:16:07;;;;;;;21.13;19.13;;;614.70;1638.40;;;;;;5075817;28;20044;-75
2021/07/25 01:18:48;;;;;;;20.67;18.42;;;614.70;1638.40;;;;;;5076011;28;20025;-73
2021/07/25 01:21:16;;;;;;;20.50;18.42;;;614.70;1664.00;;;;;;5076060;28;20021;-73
2021/07/25 01:23:42;;;;;;;20.75;18.52;;;614.60;1664.00;;;;;;5075592;28;20048;-71
2021/07/25 01:26:11;;;;;;;20.17;17.25;;;614.50;1664.00;;;;;;5075544;28;20024;-71
2021/07/25 01:28:41;;;;;;;19.13;16.75;;;614.50;1664.00;;;;;;5075664;28;20021;-71
2021/07/25 01:31:14;;;;;;;18.38;16.42;;;614.50;1664.00;;;;;;5075883;28;20085;-75
2021/07/25 01:33:42;;;;;;;18.52;16.48;;;614.50;1664.00;;;;;;5075527;28;20480;-71
2021/07/25 01:36:10;;;;;;;19.88;16.73;;;614.50;1664.00;;;;;;5075291;28;20040;-72
2021/07/25 01:38:36;;;;;;;19.90;16.52;;;614.50;1664.00;;;;;;5075718;28;20081;-72
2021/07/25 01:41:10;;;;;;;18.27;16.48;;;614.40;1689.60;;;;;;5075503;28;20029;-74
2021/07/25 01:43:39;;;;;;;18.90;17.08;;;614.40;1689.60;;;;;;5075137;28;20554;-74
2021/07/25 01:46:05;;;;;;;17.95;16.23;;;614.40;1689.60;;;;;;5075358;28;20056;-72
2021/07/25 01:48:31;;;;;;;17.50;15.63;;;614.40;1689.60;;;;;;5075202;28;20484;-71
2021/07/25 01:50:57;;;;;;;18.27;14.82;;;614.40;1689.60;;;;;;5075234;28;20417;-71
2021/07/25 01:53:23;;;;;;;20.02;15.70;;;614.40;1689.60;;;;;;5074739;28;20036;-73
2021/07/25 01:55:49;;;;;;;16.42;14.65;;;614.40;1689.60;;;;;;5073288;28;20028;-71
2021/07/25 01:58:15;;;;;;;17.08;15.07;;;614.40;1689.60;;;;;;5074661;28;20052;-72
2021/07/25 02:00:41;;;;;;;18.70;15.57;;;614.40;1689.60;;;;;;5073546;28;20025;-72
2021/07/25 02:03:07;;;;;;;20.90;15.98;;;614.40;1689.60;;;;;;5074478;28;20086;-71
2021/07/25 02:05:36;;;;;;;17.60;15.55;;;614.40;1689.60;;;;;;5073137;28;20090;-71
2021/07/25 02:08:02;;;;;;;15.95;14.30;;;589.60;1689.60;;;;;;5074891;28;20020;-72
2021/07/25 02:10:27;;;;;;;18.45;14.82;;;614.40;1689.60;;;;;;5075081;28;20020;-72
2021/07/25 02:12:53;;;;;;;21.75;15.23;;;614.40;1689.60;;;;;;5073291;28;20521;-72
2021/07/25 02:15:19;;;;;;;17.65;13.93;;;614.40;1689.60;;;;;;5073976;28;20021;-75
2021/07/25 02:17:45;;;;;;;18.20;14.15;;;614.40;1689.60;;;;;;5073265;28;20032;-74
2021/07/25 02:20:11;;;;;;;15.13;13.35;;;589.70;1689.60;;;;;;5074545;28;20032;-72
2021/07/25 02:22:37;;;;;;;19.27;13.35;;;589.70;1715.20;;;;;;5074414;28;20032;-75
2021/07/25 02:25:03;;;;;;;14.40;12.50;;;589.70;1689.60;;;;;;5074674;28;20079;-72
2021/07/25 02:27:29;;;;;;;13.70;11.63;;;589.70;1689.60;;;;;;5072867;28;20070;-75
2021/07/25 02:29:55;;;;;;;14.63;11.27;;;589.60;1689.60;;;;;;5074456;28;20028;-74
2021/07/25 02:32:21;;;;;;;13.48;11.68;;;589.60;1689.60;;;;;;5072824;28;20021;-74
2021/07/25 02:34:47;;;;;;;19.08;12.13;;;589.60;1689.60;;;;;;5074278;28;20048;-71
2021/07/25 02:37:14;;;;;;;13.27;11.57;;;589.60;1715.20;;;;;;5073987;28;20078;-72
2021/07/25 02:39:40;;;;;;;16.38;11.07;;;589.60;1715.20;;;;;;5074222;28;20024;-72
2021/07/25 02:42:07;;;;;;;12.93;10.95;;;589.60;1715.20;;;;;;5074010;28;20027;-74
2021/07/25 02:44:33;;;;;;;15.38;10.35;;;589.60;1715.20;;;;;;5074250;28;20503;-71
2021/07/25 02:46:59;;;;;;;13.05;11.00;;;589.50;1715.20;;;;;;5074136;28;20024;-72
2021/07/25 02:49:25;;;;;;;11.77;10.57;;;589.50;1740.80;;;;;;5074174;28;20036;-72
2021/07/25 02:51:51;;;;;;;13.98;11.25;;;589.50;1740.80;;;;;;5072962;28;20449;-71
2021/07/25 02:54:17;;;;;;;16.05;10.68;;;589.50;1715.20;;;;;;5074162;28;20028;-72
2021/07/25 02:56:43;;;;;;;14.73;10.60;;;589.60;1740.80;;;;;;5072360;28;20113;-72
2021/07/25 02:59:08;;;;;;;15.63;9.95;;;589.60;1715.20;;;;;;5074189;28;20465;-72
2021/07/25 03:01:34;;;;;;;11.15;9.25;;;589.60;1715.20;;;;;;5073912;28;20028;-71
2021/07/25 03:04:00;;;;;;;16.08;10.52;;;589.50;1715.20;;;;;;5073980;28;20025;-72
2021/07/25 03:06:26;;;;;;;12.38;9.98;;;589.50;1715.20;;;;;;5073828;28;20385;-72
2021/07/25 03:08:51;;;;;;;15.65;10.65;;;589.60;1715.20;;;;;;5073848;28;20020;-71
2021/07/25 03:11:19;;;;;;;17.58;11.00;;;589.50;1715.20;;;;;;5073873;28;20028;-72
2021/07/25 03:13:45;;;;;;;16.20;10.77;;;589.50;1715.20;;;;;;5073560;28;20139;-71
2021/07/25 03:16:11;;;;;;;14.40;10.27;;;589.60;1740.80;;;;;;5073779;28;20388;-73
2021/07/25 03:18:37;;;;;;;20.55;11.48;;;589.60;1740.80;;;;;;5073433;28;20034;-72
2021/07/25 03:21:04;;;;;;;11.60;10.30;;;589.50;1740.80;;;;;;5073606;28;20021;-72
2021/07/25 03:23:30;;;;;;;12.20;10.00;;;589.50;1740.80;;;;;;5073405;28;20028;-79
2021/07/25 03:25:56;;;;;;;12.35;10.15;;;589.50;1740.80;;;;;;5071719;28;20038;-75
2021/07/25 03:28:22;;;;;;;13.35;10.50;;;589.50;1740.80;;;;;;5071827;28;20017;-71
2021/07/25 03:30:48;;;;;;;13.20;10.82;;;589.50;1740.80;;;;;;5072361;28;20035;-71
2021/07/25 03:33:15;;;;;;;16.65;10.73;;;589.50;1740.80;;;;;;5073227;28;20078;-73
2021/07/25 03:35:41;;;;;;;14.88;11.13;;;589.50;1740.80;;;;;;5072093;28;20063;-74
2021/07/25 03:38:07;;;;;;;14.40;10.60;;;589.50;1740.80;;;;;;5071840;28;20389;-70
2021/07/25 03:40:34;;;;;;;12.23;10.38;;;589.50;1740.80;;;;;;5074019;28;20024;-78
2021/07/25 03:43:00;;;;;;;15.48;10.10;;;589.50;1740.80;;;;;;5073611;28;20115;-71
2021/07/25 03:45:26;;;;;;;20.73;10.95;;;589.50;1740.80;;;;;;5073388;28;20020;-74
2021/07/25 03:47:52;;;;;;;14.77;10.75;;;589.40;1740.80;;;;;;5073187;28;20028;-72
2021/07/25 03:50:18;;;;;;;15.48;10.52;;;589.40;1740.80;;;;;;5073378;28;20021;-71
2021/07/25 03:52:44;;;;;;;16.13;11.18;;;589.40;1766.40;;;;;;5073697;28;20031;-71
2021/07/25 03:55:11;;;;;;;15.13;10.52;;;589.40;1766.40;;;;;;5073715;28;20096;-72
2021/07/25 03:57:37;;;;;;;19.98;10.77;;;589.40;1766.40;;;;;;5071477;28;20807;-71
2021/07/25 04:00:04;;;;;;;12.07;9.85;;;589.40;1766.40;;;;;;5073739;28;20104;-72
2021/07/25 04:02:30;;;;;;;13.13;10.30;;;589.40;1766.40;;;;;;5073003;28;20021;-73
2021/07/25 04:04:56;;;;;;;13.00;10.50;;;589.40;1766.40;;;;;;5073820;28;20094;-72
2021/07/25 04:07:22;;;;;;;19.50;10.60;;;589.40;1740.80;;;;;;5073033;28;20067;-73
2021/07/25 04:09:48;;;;;;;15.10;10.15;;;589.50;1740.80;;;;;;5073338;28;20056;-71
2021/07/25 04:12:14;;;;;;;17.80;10.35;;;589.40;1766.40;;;;;;5073136;28;20021;-72
2021/07/25 04:14:40;;;;;;;13.85;9.93;;;589.50;1740.80;;;;;;5073338;28;20457;-71
2021/07/25 04:17:06;;;;;;;12.05;10.77;;;589.40;1740.80;;;;;;5073179;28;20037;-76
2021/07/25 04:19:32;;;;;;;13.05;10.27;;;589.50;1740.80;;;;;;5072636;28;20016;-71
2021/07/25 04:22:00;;;;;;;13.93;10.05;;;589.50;1740.80;;;;;;5071946;28;20036;-71
2021/07/25 04:24:26;;;;;;;14.27;9.25;;;589.50;1740.80;;;;;;5072921;28;20024;-73
2021/07/25 04:26:52;;;;;;;12.30;9.60;;;589.50;1740.80;;;;;;5055515;28;20078;-76
2021/07/25 04:29:19;;;;;;;16.65;10.45;;;589.50;1740.80;;;;;;5073047;28;20110;-70
2021/07/25 04:31:45;;;;;;;12.45;10.27;;;589.50;1740.80;;;;;;5073014;28;20024;-71
2021/07/25 04:34:12;;;;;;;14.25;10.27;;;589.50;1740.80;;;;;;5072725;28;20025;-73
2021/07/25 04:36:39;;;;;;;16.05;9.73;;;589.50;1740.80;;;;;;5072864;28;20060;-76
2021/07/25 04:39:07;;;;;;;12.95;10.43;;;589.50;1715.20;;;;;;5058232;28;20553;-71
2021/07/25 04:41:57;;;;;;;16.63;9.82;;;589.50;1740.80;;;;;;5076817;28;20050;-73
2021/07/25 04:44:29;;;;;;;12.85;10.27;;;589.50;1740.80;;;;;;5076820;28;20127;-72
2021/07/25 04:47:01;;;;;;;11.05;9.90;;;589.50;1740.80;;;;;;5076838;28;20020;-71
2021/07/25 04:49:37;;;;;;;11.98;10.27;;;589.50;1740.80;;;;;;5076479;28;20512;-71
2021/07/25 04:52:03;;;;;;;14.75;10.40;;;589.50;1740.80;;;;;;5058502;28;20035;-71
2021/07/25 04:54:34;;;;;;;13.25;10.15;;;589.50;1740.80;;;;;;5076694;28;20030;-73
2021/07/25 04:57:04;;;;;;;13.85;9.73;;;589.50;1740.80;;;;;;5076294;28;20049;-70
2021/07/25 04:59:46;;;;;;;12.95;10.30;;;589.50;1740.80;;;;;;5076356;28;20095;-71
2021/07/25 05:02:15;;;;;;;16.02;11.23;;;589.60;1740.80;;;;;;5076618;28;20419;-71
2021/07/25 05:04:41;;;;;;;12.70;9.90;;;589.60;1740.80;;;;;;5075955;28;20020;-72
2021/07/25 05:07:11;;;;;;;21.98;11.30;;;589.70;1715.20;;;;;;5058357;28;20024;-72
2021/07/25 05:09:38;;;;;;;22.83;11.10;;;589.70;1740.80;;;;;;5076053;28;20485;-71
2021/07/25 05:12:12;;;;;;;17.88;10.00;;;589.70;1740.80;;;;;;5076213;28;20476;-74
2021/07/25 05:15:02;;;;;;;14.85;9.18;;;589.70;1740.80;;;;;;5076318;28;20028;-77
2021/07/25 05:17:37;;;;;;;11.60;10.18;;;589.70;1740.80;;;;;;5076174;28;20388;-72
2021/07/25 05:20:04;;;;;;;16.15;9.57;;;589.70;1740.80;;;;;;5076174;28;20423;-73
2021/07/25 05:22:54;;;;;;;12.95;9.10;;;614.40;1740.80;;;;;;5075967;28;20044;-74
2021/07/25 05:25:23;;;;;;;15.07;9.80;;;614.40;1740.80;;;;;;5076292;28;20052;-73
2021/07/25 05:27:51;;;;;;;14.25;9.73;;;614.40;1740.80;;;;;;5076015;28;20017;-71
2021/07/25 05:30:22;;;;;;;11.88;10.20;;;614.40;1740.80;;;;;;5075814;28;20048;-71
2021/07/25 05:32:48;;;;;;;13.05;9.20;;;614.40;1740.80;;;;;;5075989;28;20439;-71
2021/07/25 05:35:15;;;;;;;12.43;9.88;;;614.40;1715.20;;;;;;5075900;28;20426;-74
2021/07/25 05:37:42;;;;;;;13.20;10.00;;;614.40;1740.80;;;;;;5075617;28;20499;-71
2021/07/25 05:40:09;;;;;;;11.82;9.73;;;614.40;1715.20;;;;;;5075462;28;20021;-71
2021/07/25 05:42:35;;;;;;;16.38;10.90;;;614.50;1740.80;;;;;;5075486;28;20469;-71
2021/07/25 05:45:01;;;;;;;13.85;9.98;;;614.50;1715.20;;;;;;5075768;28;20021;-71
2021/07/25 05:47:26;;;;;;;11.80;9.65;;;614.60;1715.20;;;;;;5075385;28;20036;-72
2021/07/25 05:49:52;;;;;;;10.95;9.77;;;614.70;1715.20;;;;;;5074394;28;20031;-72
2021/07/25 05:52:18;;;;;;;15.80;10.43;;;614.70;1715.20;;;;;;5075111;28;20086;-70
2021/07/25 05:54:44;;;;;;;12.13;10.43;;;614.70;1740.80;;;;;;5075511;28;20105;-71
2021/07/25 05:57:10;;;;;;;13.30;10.55;;;614.70;1740.80;;;;;;5075141;28;20392;-74
2021/07/25 05:59:36;;;;;;;12.82;9.85;;;614.80;1715.20;;;;;;5057508;28;20619;-72
2021/07/25 06:02:02;;;;;;;18.33;9.70;;;614.80;1715.20;;;;;;5075135;28;20112;-72
2021/07/25 06:04:29;;;;;;;12.02;10.00;;;614.80;1689.60;;;;;;5074899;28;20059;-79
2021/07/25 06:06:56;;;;;;;18.05;10.13;;;614.90;1715.20;;;;;;5056755;28;20029;-82
2021/07/25 06:09:22;;;;;;;11.65;8.98;;;614.80;1715.20;;;;;;5056799;28;20017;-76
2021/07/25 06:11:49;;;;;;;12.32;9.55;;;614.90;1689.60;;;;;;5075392;28;20036;-77
2021/07/25 06:14:14;;;;;;;12.70;9.55;;;615.00;1689.60;;;;;;5056426;28;20012;-72
2021/07/25 06:16:40;;;;;;;14.65;9.98;;;614.90;1689.60;;;;;;5074814;28;20561;-71
2021/07/25 06:19:06;;;;;;;16.20;9.73;;;615.00;1689.60;;;;;;5074517;28;20431;-76
2021/07/25 06:21:32;;;;;;;12.57;9.70;;;615.10;1715.20;;;;;;5073992;28;20063;-73
2021/07/25 06:23:58;;;;;;;15.30;9.43;;;615.10;1689.60;;;;;;5074139;28;20441;-72
2021/07/25 06:26:25;;;;;;;17.65;10.07;;;615.10;1689.60;;;;;;5056084;28;20028;-76
2021/07/25 06:28:51;;;;;;;17.00;9.40;;;615.10;1689.60;;;;;;5073611;28;20016;-75
2021/07/25 06:31:17;;;;;;;13.00;9.40;;;615.20;1689.60;;;;;;5073620;28;20021;-73
2021/07/25 06:33:43;;;;;;;13.80;9.23;;;615.30;1664.00;;;;;;5073107;28;20019;-72
2021/07/25 06:36:13;;;;;;;13.43;9.18;;;640.00;1664.00;;;;;;5074749;28;20024;-81
2021/07/25 06:38:40;;;;;;;39.08;9.88;;;640.00;1664.00;;;;;;5056482;28;20039;-71
2021/07/25 06:41:06;;;;;;;11.23;8.80;;;640.00;1638.40;;;;;;5074307;28;20108;-71
2021/07/25 06:43:32;;;;;;;14.75;9.23;;;640.00;1638.40;;;;;;5073772;28;20024;-82
2021/07/25 06:45:58;;;;;;;13.20;9.38;;;640.10;1664.00;;;;;;5074151;28;20043;-73
2021/07/25 06:48:29;;;;;;;15.38;9.65;;;640.10;1664.00;;;;;;5074511;28;20020;-70
2021/07/25 06:50:57;;;;;;;12.93;9.23;;;640.20;1638.40;;;;;;5056234;28;20101;-71
2021/07/25 06:53:24;;;;;;;10.18;8.93;;;640.20;1638.40;;;;;;5073959;28;20112;-73
2021/07/25 06:55:52;;;;;;;20.27;9.70;;;640.30;1638.40;;;;;;5056314;28;20037;-72
2021/07/25 06:58:19;;;;;;;12.77;8.90;;;640.50;1638.40;;;;;;5074324;28;20150;-71
2021/07/25 07:00:45;;;;;;;16.15;9.60;;;640.60;1612.80;;;;;;5073935;28;20095;-73
2021/07/25 07:03:10;;;;;;;15.30;9.70;;;640.60;1638.40;;;;;;5073916;28;20027;-72
2021/07/25 07:05:36;;;;;;;12.43;8.77;;;640.70;1612.80;;;;;;5073314;28;20033;-73
2021/07/25 07:08:06;;;;;;;14.77;9.63;;;640.70;1612.80;;;;;;5073299;28;20416;-71
2021/07/25 07:10:38;;;;;;;11.60;8.85;;;640.80;1612.80;;;;;;5072207;28;20099;-72
2021/07/25 07:13:08;;;;;;;14.65;9.60;;;640.90;1612.80;;;;;;5072872;28;20020;-72
2021/07/25 07:15:35;;;;;;;15.55;8.50;;;665.60;1612.80;;;;;;5055510;28;20026;-71
2021/07/25 07:18:01;;;;;;;9.55;8.65;;;665.60;1638.40;;;;;;5055751;28;20036;-71
2021/07/25 07:20:28;;;;;;;11.18;8.73;;;665.70;1612.80;;;;;;5073236;28;20030;-72
2021/07/25 07:23:05;;;;;;;13.55;9.88;;;665.70;1612.80;;;;;;5055440;28;20024;-72
2021/07/25 07:25:39;;;;;;;13.18;8.18;;;665.80;1612.80;;;;;;5055383;28;20477;-72
2021/07/25 07:28:06;;;;;;;21.02;9.57;;;665.80;1612.80;;;;;;5073512;28;20111;-71
2021/07/25 07:30:33;;;;;;;19.20;8.85;;;665.80;1612.80;;;;;;5073537;28;20025;-75
2021/07/25 07:33:12;;;;;;;19.80;10.05;;;665.80;1612.80;;;;;;5073200;28;20052;-72
2021/07/25 07:35:39;;;;;;;19.58;9.60;;;666.00;1612.80;;;;;;5073682;28;20032;-72
2021/07/25 07:38:07;;;;;;;12.68;9.65;;;666.00;1612.80;;;;;;5073591;28;20504;-71
2021/07/25 07:40:34;;;;;;;25.63;10.05;;;666.00;1638.40;;;;;;5073328;28;20033;-74
2021/07/25 07:43:01;;;;;;;14.60;9.13;;;666.00;1612.80;;;;;;5073119;28;20078;-72
2021/07/25 07:45:27;;;;;;;18.58;10.07;;;666.10;1612.80;;;;;;5073377;28;20025;-72
2021/07/25 07:47:54;;;;;;;15.52;10.02;;;666.10;1612.80;;;;;;5073845;28;20028;-72
2021/07/25 07:50:21;;;;;;;17.02;10.32;;;666.10;1612.80;;;;;;5073663;28;20048;-71
2021/07/25 07:52:47;;;;;;;14.60;9.55;;;666.20;1612.80;;;;;;5072925;28;20468;-71
2021/07/25 07:55:14;;;;;;;14.50;10.32;;;666.30;1612.80;;;;;;5073748;28;20020;-71
2021/07/25 07:57:40;;;;;;;16.15;9.13;;;666.30;1612.80;;;;;;5071816;28;20048;-72
2021/07/25 08:00:07;;;;;;;18.35;9.60;;;666.30;1587.20;;;;;;5054033;28;20529;-74
2021/07/25 08:02:35;;;;;;;12.30;9.45;;;666.40;1587.20;;;;;;5069947;28;20048;-71
2021/07/25 08:05:02;;;;;;;14.77;9.55;;;666.30;1587.20;;;;;;5071042;28;20025;-73
2021/07/25 08:07:28;;;;;;;15.85;9.55;;;666.40;1587.20;;;;;;5052150;28;20484;-80
2021/07/25 08:09:54;;;;;;;18.63;10.20;;;666.40;1587.20;;;;;;5071482;28;20036;-76
2021/07/25 08:12:20;;;;;;;12.60;9.70;;;666.40;1587.20;;;;;;5071488;28;20028;-72
2021/07/25 08:14:46;;;;;;;16.65;9.82;;;666.40;1587.20;;;;;;5075856;28;20020;-79
2021/07/25 08:17:12;;;;;;;14.52;10.48;;;691.20;1587.20;;;;;;5075716;28;20487;-72
2021/07/25 08:19:38;;;;;;;11.55;9.98;;;691.20;1587.20;;;;;;5075598;28;20032;-77
2021/07/25 08:22:07;;;;;;;14.27;10.43;;;691.20;1587.20;;;;;;5075555;28;20044;-72
2021/07/25 08:24:35;;;;;;;14.82;9.32;;;691.20;1612.80;;;;;;5071354;28;20012;-81
2021/07/25 08:27:01;;;;;;;14.48;10.35;;;691.20;1587.20;;;;;;5074360;28;20044;-79
2021/07/25 08:29:27;;;;;;;17.98;10.98;;;691.20;1587.20;;;;;;5074064;28;20025;-80
2021/07/25 08:31:53;;;;;;;11.52;9.63;;;691.20;1587.20;;;;;;5070926;28;20059;-78
2021/07/25 08:34:19;;;;;;;14.95;10.20;;;691.20;1587.20;;;;;;5074668;28;20052;-81
2021/07/25 08:36:45;;;;;;;17.75;10.90;;;691.30;1587.20;;;;;;5074616;28;20067;-78
2021/07/25 08:39:11;;;;;;;19.13;10.00;;;691.30;1587.20;;;;;;5056532;28;20071;-83
2021/07/25 08:41:58;;;;;;;34.00;11.18;;;691.30;1561.60;;;;;;5074174;28;20090;-80
2021/07/25 08:44:40;;;;;;;39.33;11.02;;;691.30;1587.20;;;;;;5073108;28;20476;-80
2021/07/25 08:47:17;;;;;;;20.17;11.90;;;691.30;1587.20;;;;;;5074298;28;20059;-83
2021/07/25 08:49:49;;;;;;;28.33;11.70;;;691.30;1587.20;;;;;;5074090;28;20024;-77
2021/07/25 08:52:20;;;;;;;28.73;10.43;;;691.30;1587.20;;;;;;5070908;28;20047;-76
2021/07/25 08:54:46;;;;;;;24.58;11.05;;;691.30;1587.20;;;;;;5072535;28;20077;-75
2021/07/25 08:57:17;;;;;;;18.10;10.57;;;691.40;1587.20;;;;;;5071325;28;20094;-76
2021/07/25 08:59:45;;;;;;;22.67;11.48;;;691.40;1587.20;;;;;;5072104;28;20405;-74
2021/07/25 09:02:22;;;;;;;24.00;10.98;;;691.40;1587.20;;;;;;5071866;28;20166;-74
2021/07/25 09:04:49;;;;;;;16.88;11.02;;;691.30;1587.20;;;;;;5071988;28;20021;-77
2021/07/25 09:07:16;;;;;;;27.48;11.48;;;691.30;1587.20;;;;;;5072175;28;20484;-76
2021/07/25 09:09:44;;;;;;;20.20;11.80;;;691.30;1587.20;;;;;;5072774;28;20484;-73
2021/07/25 09:12:13;;;;;;;19.45;11.90;;;691.30;1612.80;;;;;;5054544;28;20069;-71
2021/07/25 09:14:43;;;;;;;18.45;12.18;;;691.30;1612.80;;;;;;5071425;28;20484;-76
2021/07/25 09:17:10;;;;;;;18.40;12.82;;;691.40;1612.80;;;;;;5073458;28;20041;-71
2021/07/25 09:19:55;;;;;;;22.92;12.40;;;691.50;1612.80;;;;;;5071853;28;20741;-72
2021/07/25 09:22:21;;;;;;;25.75;13.13;;;691.50;1612.80;;;;;;5072508;28;20074;-75
2021/07/25 09:24:51;;;;;;;40.85;13.70;;;691.50;1612.80;;;;;;5071629;28;20021;-73
2021/07/25 09:27:23;;;;;;;27.33;12.35;;;691.50;1612.80;;;;;;5073976;28;20048;-76
2021/07/25 09:29:49;;;;;;;19.58;12.10;;;691.40;1612.80;;;;;;5074476;28;20047;-75
2021/07/25 09:32:19;;;;;;;33.63;13.02;;;691.40;1638.40;;;;;;5073611;28;20492;-71
2021/07/25 09:34:46;;;;;;;64.72;14.20;;;691.60;1612.80;;;;;;5073568;28;20074;-74
2021/07/25 09:37:17;;;;;;;51.15;14.77;;;691.60;1612.80;;;;;;5055664;28;20024;-71
2021/07/25 09:39:52;;;;;;;102.03;15.77;;;691.70;1612.80;;;;;;5073499;28;20036;-72
2021/07/25 09:42:30;;;;;;;41.83;13.32;;;691.70;1612.80;;;;;;5071161;28;20020;-75
2021/07/25 09:44:59;;;;;;;92.57;16.17;;;691.70;1612.80;;;;;;5073541;28;20021;-73
2021/07/25 09:47:28;;;;;;;32.13;14.27;;;691.70;1612.80;;;;;;5073718;28;20021;-74
2021/07/25 09:49:55;;;;;;;26.38;12.65;;;691.70;1612.80;;;;;;5073592;28;20032;-74
2021/07/25 09:52:34;;;;;;;70.85;15.43;;;691.80;1587.20;;;;;;5073866;28;20097;-78
2021/07/25 09:55:03;;;;;;;36.67;14.25;;;691.70;1612.80;;;;;;5073762;28;20472;-76
2021/07/25 09:57:31;;;;;;;33.35;13.27;;;691.70;1612.80;;;;;;5055603;28;20057;-74
2021/07/25 10:00:06;;;;;;;25.88;12.75;;;691.70;1612.80;;;;;;5055332;28;20063;-76
2021/07/25 10:02:41;;;;;;;26.83;12.48;;;691.60;1612.80;;;;;;5073241;28;20044;-80
2021/07/25 10:05:17;;;;;;;30.13;13.40;;;691.60;1612.80;;;;;;5039655;28;20020;-75
2021/07/25 10:07:45;;;;;;;25.50;13.07;;;691.60;1612.80;;;;;;5074107;28;20020;-78
2021/07/25 10:10:13;;;;;;;22.35;13.30;;;691.60;1638.40;;;;;;5073411;28;20029;-78
2021/07/25 10:12:41;;;;;;;27.88;13.02;;;691.70;1612.80;;;;;;5073046;28;20052;-78
2021/07/25 10:15:11;;;;;;;34.63;14.13;;;691.70;1612.80;;;;;;5073342;28;20104;-80
2021/07/25 10:17:39;;;;;;;24.60;13.80;;;691.70;1638.40;;;;;;5073443;28;20071;-77
2021/07/25 10:20:07;;;;;;;27.52;14.20;;;691.70;1612.80;;;;;;5073436;28;20354;-74
2021/07/25 10:22:35;;;;;;;22.70;13.10;;;691.70;1612.80;;;;;;5073332;28;20102;-80
2021/07/25 10:25:05;;;;;;;21.42;13.45;;;691.80;1612.80;;;;;;5072820;28;20020;-78
2021/07/25 10:27:31;;;;;;;16.13;13.07;;;691.70;1638.40;;;;;;5072985;28;20024;-79
2021/07/25 10:30:06;;;;;;;21.20;13.73;;;691.70;1612.80;;;;;;5073502;28;20024;-78
2021/07/25 10:32:33;;;;;;;22.00;13.98;;;691.60;1612.80;;;;;;5072774;28;20024;-77
2021/07/25 10:35:06;;;;;;;16.92;12.85;;;691.70;1612.80;;;;;;5072445;28;20021;-72
2021/07/25 10:37:35;;;;;;;17.40;12.77;;;691.70;1612.80;;;;;;5072728;28;20032;-73
2021/07/25 10:40:02;;;;;;;18.60;14.50;;;691.70;1638.40;;;;;;5071846;28;20025;-77
2021/07/25 10:42:31;;;;;;;15.57;13.93;;;691.70;1638.40;;;;;;5072463;28;20517;-78
2021/07/25 10:44:57;;;;;;;18.55;14.95;;;691.70;1638.40;;;;;;5069558;28;20036;-78
2021/07/25 10:47:32;;;;;;;17.15;13.93;;;691.70;1638.40;;;;;;5072888;28;20020;-77
2021/07/25 10:49:59;;;;;;;17.27;13.85;;;691.80;1638.40;;;;;;5072643;28;20028;-77
2021/07/25 10:52:26;;;;;;;20.20;14.50;;;691.80;1638.40;;;;;;5054843;28;20028;-75
2021/07/25 10:54:52;;;;;;;17.25;14.35;;;691.80;1638.40;;;;;;5072126;28;20024;-74
2021/07/25 10:57:18;;;;;;;19.55;15.20;;;691.90;1638.40;;;;;;5072619;28;20052;-76
2021/07/25 10:59:46;;;;;;;19.08;14.35;;;691.90;1638.40;;;;;;5072178;28;20056;-78
2021/07/25 11:02:21;;;;;;;20.40;14.45;;;692.10;1664.00;;;;;;5072610;28;20028;-76
2021/07/25 11:04:56;;;;;;;21.80;14.52;;;716.80;1638.40;;;;;;5071430;28;20047;-75
2021/07/25 11:07:24;;;;;;;22.30;14.30;;;716.90;1638.40;;;;;;5071860;28;20028;-72
2021/07/25 11:10:10;;;;;;;20.35;14.70;;;716.90;1638.40;;;;;;5072399;28;20388;-75
2021/07/25 11:12:48;;;;;;;20.63;14.95;;;716.90;1612.80;;;;;;5072634;28;20043;-75
2021/07/25 11:15:34;;;;;;;20.70;15.07;;;717.00;1638.40;;;;;;5072152;28;20020;-75
2021/07/25 11:18:08;;;;;;;20.88;15.40;;;716.90;1638.40;;;;;;5072406;28;20488;-72
2021/07/25 11:20:37;;;;;;;18.13;15.43;;;716.90;1638.40;;;;;;5072134;28;20031;-74
2021/07/25 11:23:24;;;;;;;22.38;15.23;;;716.90;1638.40;;;;;;5071729;28;20024;-72
2021/07/25 11:25:52;;;;;;;21.27;15.52;;;717.00;1689.60;;;;;;5069903;28;20047;-72
2021/07/25 11:28:40;;;;;;;20.13;14.55;;;716.90;1638.40;;;;;;5071476;28;20021;-73
2021/07/25 11:31:15;;;;;;;20.77;14.60;;;716.90;1638.40;;;;;;5068761;28;20097;-71
2021/07/25 11:33:43;;;;;;;20.83;15.07;;;716.90;1664.00;;;;;;5069259;28;20495;-76
2021/07/25 11:36:14;;;;;;;17.67;14.52;;;716.80;1664.00;;;;;;5071317;28;20040;-72
2021/07/25 11:38:41;;;;;;;16.30;14.52;;;716.80;1664.00;;;;;;5058741;28;20048;-74
2021/07/25 11:41:08;;;;;;;17.75;14.40;;;716.80;1664.00;;;;;;5054680;28;20031;-73
2021/07/25 11:43:52;;;;;;;16.20;14.43;;;716.90;1638.40;;;;;;5071309;28;20429;-73
2021/07/25 11:46:29;;;;;;;15.75;14.23;;;716.90;1638.40;;;;;;5070887;28;20024;-70
2021/07/25 11:49:14;;;;;;;16.45;13.95;;;716.90;1638.40;;;;;;5071199;28;20548;-79
2021/07/25 11:51:54;;;;;;;15.38;13.32;;;717.00;1612.80;;;;;;5071566;28;20032;-75
2021/07/25 11:54:26;;;;;;;15.85;14.10;;;717.00;1638.40;;;;;;5070057;28;20021;-80
2021/07/25 11:57:03;;;;;;;17.80;13.20;;;717.00;1612.80;;;;;;5068789;28;20097;-77
2021/07/25 11:59:31;;;;;;;114.13;19.70;;;717.00;1612.80;;;;;;5071540;28;20032;-76
2021/07/25 12:01:58;;;;;;;24.45;13.40;;;717.00;1612.80;;;;;;5071517;28;20035;-77
2021/07/25 12:04:29;;;;;;;16.42;13.32;;;717.10;1612.80;;;;;;5071290;28;20059;-74
2021/07/25 12:07:03;;;;;;;18.63;13.55;;;717.10;1612.80;;;;;;5071313;28;20028;-73
2021/07/25 12:09:29;;;;;;;20.52;14.23;;;717.20;1612.80;;;;;;5071511;28;20061;-73